Latest Coastal Weather Observations for Shark Bay Airport

IDW60701

Issued at 7:32 am WST Thursday 2 July 2015 (issued every 10 minutes, with the page automatically refreshed every 10 minutes)

About coastal observations | Map of coastal stations | Coastal observations for WA | Marine services | Other Formats
Station Details ID: 006105 Name: SHARK BAY AIRPORT Lat: -25.89 Lon: 113.58 Height: 33.8 m
Data from the previous 72 hours. | See also: Recent months for locations in Western Australia
Date/Time
WST
Temp

°C
Wind Pressure Rain
since 9am
mm
Weather Cloud Vis
km
Sea
Height
m
Swell
Dir
 
Speed
knots
Gust
knots
hPa Trend Height
m
Period
s
Dir
02/07:30am 13.5 WSW 5 7 1022.7 - 0.0 - - - - - - -
02/07:00am 13.0 E 4 5 1022.3 - 0.0 - - - - - - -
02/06:30am 13.4 E 4 4 1022.1 - 0.0 - - - - - - -
02/06:00am 13.1 E 5 5 1021.7 - 0.0 - - - - - - -
02/05:30am 12.7 E 5 6 1021.6 - 0.0 - - - - - - -
02/05:00am 12.7 E 5 5 1021.5 - 0.0 - - - - - - -
02/04:30am 13.2 ENE 4 5 1021.5 - 0.0 - - - - - - -
02/04:00am 13.3 ENE 4 4 1021.4 - 0.0 - - - - - - -
02/03:30am 13.6 ENE 3 5 1021.3 - 0.0 - - - - - - -
02/03:00am 13.0 E 4 5 1021.3 - 0.0 - - - - - - -
02/02:30am 12.2 E 4 5 1021.5 - 0.0 - - - - - - -
02/02:00am 11.4 E 6 7 1021.4 - 0.0 - - - - - - -
02/01:30am 12.3 CALM 0 0 1021.8 - 0.0 - - - - - - -
02/01:00am 13.1 NNE 1 4 1021.6 - 0.0 - - - - - - -
02/12:30am 13.3 NE 6 6 1021.6 - 0.0 - - - - - - -
02/12:00am 12.4 ESE 5 7 1021.7 - 0.0 - - - - - - -
 
Date/Time
WST
Temp

°C
Wind Pressure Rain
since 9am
mm
Weather Cloud Vis
km
Sea
Height
m
Swell
Dir
 
Speed
knots
Gust
knots
hPa Trend Height
m
Period
s
Dir
01/11:30pm 14.1 WSW 4 5 1022.1 - 0.0 - - - - - - -
01/11:00pm 15.0 WSW 4 5 1022.3 - 0.0 - - - - - - -
01/10:30pm 14.9 CALM 0 0 1022.5 - 0.0 - - - - - - -
01/10:00pm 15.8 CALM 0 0 1022.7 - 0.0 - - - - - - -
01/09:30pm 15.5 CALM 0 0 1022.7 - 0.0 - - - - - - -
01/09:00pm 16.2 CALM 0 0 1022.7 - 0.0 - - - - - - -
01/08:30pm 16.5 CALM 0 0 1022.5 - 0.0 - - - - - - -
01/08:00pm 17.2 W 3 4 1022.3 - 0.0 - - - - - - -
01/07:30pm 17.7 WSW 4 5 1022.2 - 0.0 - - - - - - -
01/07:00pm 18.6 W 4 7 1021.8 - 0.0 - - - - - - -
01/06:30pm 19.7 WNW 6 6 1021.6 - 0.0 - - - - - - -
01/06:00pm 20.3 WNW 5 6 1021.5 - 0.0 - - - - - - -
01/05:30pm 21.3 WNW 5 7 1021.3 - 0.0 - - - - - - -
01/05:00pm 22.3 WNW 6 7 1021.0 - 0.0 - - - - - - -
01/04:30pm 23.2 WNW 9 11 1020.8 - 0.0 - - - - - - -
01/04:00pm 25.6 WNW 9 14 1020.6 - 0.0 - - - - - - -
01/03:30pm 26.1 NNW 8 13 1020.5 - 0.0 - - - - - - -
01/03:00pm 25.4 NNW 8 12 1020.4 - 0.0 - - - - - - -
01/02:30pm 25.6 N 9 13 1020.5 - 0.0 - - - - - - -
01/02:00pm 26.0 N 9 15 1020.5 - 0.0 - - - - - - -
01/01:30pm 25.5 NNE 9 13 1020.9 - 0.0 - - - - - - -
01/01:00pm 24.8 NNE 9 13 1021.1 - 0.0 - - - - - - -
01/12:30pm 24.5 NNE 8 11 1021.6 - 0.0 - - - - - - -
01/12:00pm 23.5 NNE 9 13 1022.0 - 0.0 - - - - - - -
01/11:30am 23.3 NE 9 12 1022.3 - 0.0 - - - - - - -
01/11:00am 22.0 NE 9 11 1022.6 - 0.0 - - - - - - -
01/10:30am 20.8 ENE 8 11 1022.9 - 0.0 - - - - - - -
01/10:00am 18.7 ENE 7 9 1023.2 - 0.0 - - - - - - -
01/09:30am 17.9 ENE 7 10 1022.9 - 0.0 - - - - - - -
01/09:00am 16.3 ENE 6 7 1022.5 - 0.0 - - - - - - -
01/08:30am 15.0 E 6 7 1022.4 - 0.0 - - - - - - -
01/08:00am 14.3 E 6 6 1022.0 - 0.0 - - - - - - -
01/07:30am 13.5 E 5 6 1021.8 - 0.0 - - - - - - -
01/07:00am 13.0 E 6 7 1021.5 - 0.0 - - - - - - -
01/06:30am 12.7 ENE 6 7 1021.3 - 0.0 - - - - - - -
01/06:00am 12.4 E 6 7 1021.2 - 0.0 - - - - - - -
01/05:30am 12.1 ENE 6 7 1021.2 - 0.0 - - - - - - -
01/05:00am 12.3 E 7 8 1021.2 - 0.0 - - - - - - -
01/04:30am 12.0 E 6 7 1021.2 - 0.0 - - - - - - -
01/04:00am 12.0 E 5 6 1021.3 - 0.0 - - - - - - -
01/03:30am 11.9 E 7 8 1021.2 - 0.0 - - - - - - -
01/03:00am 12.3 ESE 6 7 1021.4 - 0.0 - - - - - - -
01/02:30am 12.8 E 5 6 1021.4 - 0.0 - - - - - - -
01/02:00am 13.4 E 5 5 1021.6 - 0.0 - - - - - - -
01/01:30am 12.9 E 5 6 1021.9 - 0.0 - - - - - - -
01/01:00am 13.2 E 5 6 1022.2 - 0.0 - - - - - - -
01/12:30am 13.6 E 6 7 1022.3 - 0.0 - - - - - - -
01/12:00am 13.3 E 5 5 1022.3 - 0.0 - - - - - - -
 
Date/Time
WST
Temp

°C
Wind Pressure Rain
since 9am
mm
Weather Cloud Vis
km
Sea
Height
m
Swell
Dir
 
Speed
knots
Gust
knots
hPa Trend Height
m
Period
s
Dir
30/11:30pm 12.6 ENE 6 7 1022.3 - 0.0 - - - - - - -
30/11:00pm 12.7 ENE 6 7 1022.4 - 0.0 - - - - - - -
30/10:30pm 14.0 E 3 4 1022.4 - 0.0 - - - - - - -
30/10:00pm 14.8 SE 3 4 1022.2 - 0.0 - - - - - - -
30/09:30pm 15.0 SE 4 4 1022.2 - 0.0 - - - - - - -
30/09:00pm 15.4 SSE 4 5 1022.2 - 0.0 - - - - - - -
30/08:30pm 16.5 S 2 3 1022.2 - 0.0 - - - - - - -
30/08:00pm 16.3 SW 1 4 1022.0 - 0.0 - - - - - - -
30/07:30pm 16.9 WSW 3 4 1021.9 - 0.0 - - - - - - -
30/07:00pm 17.9 W 4 4 1021.8 - 0.0 - - - - - - -
30/06:30pm 18.4 W 4 4 1021.5 - 0.0 - - - - - - -
30/06:00pm 19.7 NNW 4 4 1021.3 - 0.0 - - - - - - -
30/05:30pm 21.6 N 5 6 1021.1 - 0.0 - - - - - - -
30/05:00pm 23.4 N 6 7 1021.0 - 0.0 - - - - - - -
30/04:30pm 25.1 N 6 8 1020.8 - 0.0 - - - - - - -
30/04:00pm 25.7 N 6 10 1020.7 - 0.0 - - - - - - -
30/03:30pm 25.9 N 8 11 1020.7 - 0.0 - - - - - - -
30/03:00pm 26.4 N 10 14 1020.5 - 0.0 - - - - - - -
30/02:30pm 25.9 N 8 11 1020.7 - 0.0 - - - - - - -
30/02:00pm 24.2 N 9 12 1020.9 - 0.0 - - - - - - -
30/01:30pm 24.3 N 10 14 1021.0 - 0.0 - - - - - - -
30/01:00pm 24.4 N 11 15 1021.5 - 0.0 - - - - - - -
30/12:30pm 23.8 NNE 11 16 1021.9 - 0.0 - - - - - - -
30/12:00pm 23.5 NNE 10 15 1022.1 - 0.0 - - - - - - -
30/11:30am 23.1 NNE 11 15 1022.5 - 0.0 - - - - - - -
30/11:00am 22.1 NNE 10 14 1022.8 - 0.0 - - - - - - -
30/10:30am 21.3 NE 10 12 1023.0 - 0.0 - - - - - - -
30/10:00am 20.1 NE 10 12 1023.2 - 0.0 - - - - - - -
30/09:30am 18.9 ENE 8 10 1023.3 - 0.0 - - - - - - -
30/09:00am 17.1 ENE 7 9 1023.2 - 0.0 - - - - - - -
30/08:30am 14.8 E 7 8 1023.1 - 0.0 - - - - - - -
30/08:00am 12.8 ESE 5 5 1023.2 - 0.0 - - - - - - -
30/07:30am 11.6 SE 5 7 1022.9 - 0.0 - - - - - - -
30/07:00am 11.6 SSE 4 5 1022.7 - 0.0 - - - - - - -
30/06:30am 12.5 SSE 6 8 1022.4 - 0.0 - - - - - - -
30/06:00am 11.8 SE 7 9 1021.7 - 0.0 - - - - - - -
30/05:30am 11.9 SSW 6 8 1022.0 - 0.0 - - - - - - -
30/05:00am 11.0 ESE 5 6 1021.8 - 0.0 - - - - - - -
30/04:30am 11.7 SSE 7 7 1022.0 - 0.0 - - - - - - -
30/04:00am 12.0 SSE 6 7 1022.1 - 0.0 - - - - - - -
30/03:30am 12.9 S 6 7 1022.3 - 0.0 - - - - - - -
30/03:00am 13.2 SSW 7 9 1022.4 - 0.0 - - - - - - -
30/02:30am 14.4 SE 5 6 1022.4 - 0.0 - - - - - - -
30/02:00am 15.1 SSE 5 7 1022.1 - 0.0 - - - - - - -
30/01:30am 15.2 ESE 11 12 1022.0 - 0.0 - - - - - - -
30/01:00am 14.2 SSE 8 9 1022.1 - 0.0 - - - - - - -
30/12:30am 13.4 SE 6 7 1021.8 - 0.0 - - - - - - -
30/12:00am 13.3 ESE 6 8 1021.9 - 0.0 - - - - - - -
 
Date/Time
WST
Temp

°C
Wind Pressure Rain
since 9am
mm
Weather Cloud Vis
km
Sea
Height
m
Swell
Dir
 
Speed
knots
Gust
knots
hPa Trend Height
m
Period
s
Dir
29/11:30pm 13.9 SE 6 8 1021.9 - 0.0 - - - - - - -
29/11:00pm 13.7 SE 6 7 1022.2 - 0.0 - - - - - - -
29/10:30pm 13.7 SSE 6 7 1022.3 - 0.0 - - - - - - -
29/10:00pm 14.9 S 8 8 1022.3 - 0.0 - - - - - - -
29/09:30pm 14.2 SSE 6 6 1022.3 - 0.0 - - - - - - -
29/09:00pm 14.8 SSE 6 7 1022.3 - 0.0 - - - - - - -
29/08:30pm 15.1 SSE 5 6 1022.2 - 0.0 - - - - - - -
29/08:00pm 15.4 SSE 5 5 1022.1 - 0.0 - - - - - - -
29/07:30pm 15.7 SSE 4 4 1022.1 - 0.0 - - - - - - -
29/07:00pm 15.6 SE 3 4 1022.0 - 0.0 - - - - - - -
29/06:30pm 16.5 ESE 4 5 1021.7 - 0.0 - - - - - - -
29/06:00pm 18.0 S 5 6 1021.5 - 0.0 - - - - - - -
29/05:30pm 19.8 SW 4 5 1021.5 - 0.0 - - - - - - -
29/05:00pm 21.2 SSW 4 5 1021.6 - 0.0 - - - - - - -
29/04:30pm 22.0 SW 5 6 1021.7 - 0.0 - - - - - - -
29/04:00pm 22.2 SW 6 8 1021.7 - 0.0 - - - - - - -
29/03:30pm 22.3 SW 7 9 1021.9 - 0.0 - - - - - - -
29/03:00pm 22.0 SW 10 12 1022.0 - 0.0 - - - - - - -
29/02:30pm 22.4 SW 10 12 1022.0 - 0.0 - - - - - - -
29/02:00pm 24.0 WSW 8 10 1022.1 - 0.0 - - - - - - -
29/01:30pm 25.6 NNE 5 9 1022.2 - 0.0 - - - - - - -
29/01:00pm 25.0 NNE 6 11 1022.6 - 0.0 - - - - - - -
29/12:30pm 24.2 ENE 5 8 1023.2 - 0.0 - - - - - - -
29/12:00pm 23.6 ESE 4 7 1023.7 - 0.0 - - - - - - -
29/11:30am 23.5 ESE 3 6 1024.2 - 0.0 - - - - - - -
29/11:00am 22.6 E 4 7 1024.6 - 0.0 - - - - - - -
29/10:30am 21.5 SE 5 7 1024.7 - 0.0 - - - - - - -
29/10:00am 21.0 SSE 6 8 1024.9 - 0.0 - - - - - - -
29/09:30am 20.0 SE 5 7 1025.0 - 0.0 - - - - - - -
29/09:00am 18.4 SSE 6 7 1024.8 - 0.0 - - - - - - -
29/08:30am 16.5 SSE 4 6 1024.7 - 0.0 - - - - - - -
29/08:00am 14.7 S 5 7 1024.3 - 0.0 - - - - - - -

Other Formats:

Comma delimited format used in spreadsheet applications
http://www.bom.gov.au/fwo/IDW60701/IDW60701.95402.axf

JavaScript Object Notation format (JSON) in row-major order
http://www.bom.gov.au/fwo/IDW60701/IDW60701.95402.json